Time;durP1;ratioP1;P1;durP2;ratioP2;P2;SDS_P1;SDS_P2;PMS_P1;PMS_P2;Temp;Humidity;BMP_temperature;BMP_pressure;BME280_temperature;BME280_humidity;BME280_pressure;Samples;Min_cycle;Max_cycle;Signal;HPM_P1;HPM_P2
2022/04/05 00:02:09;;;;;;;12.52;5.15;;;;;;;;;;5071058;27;96479;-79
2022/04/05 00:04:36;;;;;;;13.73;5.20;;;;;;;;;;5071133;27;96104;-80
2022/04/05 00:07:02;;;;;;;15.10;5.47;;;;;;;;;;5070940;27;95736;-79
2022/04/05 00:09:28;;;;;;;16.15;5.03;;;;;;;;;;5071226;27;96846;-79
2022/04/05 00:11:54;;;;;;;13.00;5.10;;;;;;;;;;5074463;27;97479;-79
2022/04/05 00:14:21;;;;;;;8.65;4.57;;;;;;;;;;5070134;27;97128;-80
2022/04/05 00:16:47;;;;;;;12.93;3.85;;;;;;;;;;5071356;27;97375;-79
2022/04/05 00:19:14;;;;;;;7.18;3.70;;;;;;;;;;5070710;27;95834;-77
2022/04/05 00:21:40;;;;;;;7.60;3.33;;;;;;;;;;5070859;27;96812;-77
2022/04/05 00:24:07;;;;;;;9.98;3.70;;;;;;;;;;5070511;27;97343;-77
2022/04/05 00:26:34;;;;;;;9.02;3.50;;;;;;;;;;5070946;27;96014;-76
2022/04/05 00:29:00;;;;;;;8.18;3.15;;;;;;;;;;5070720;27;97087;-78
2022/04/05 00:31:27;;;;;;;8.98;2.95;;;;;;;;;;5067492;27;97287;-79
2022/04/05 00:33:53;;;;;;;7.97;2.95;;;;;;;;;;5070573;27;96804;-78
2022/04/05 00:36:20;;;;;;;9.77;3.10;;;;;;;;;;5067155;27;97603;-78
2022/04/05 00:38:46;;;;;;;8.95;2.85;;;;;;;;;;5068843;27;95399;-79
2022/04/05 00:41:13;;;;;;;12.02;3.15;;;;;;;;;;5070395;27;96820;-79
2022/04/05 00:43:40;;;;;;;8.00;3.08;;;;;;;;;;5056392;27;97338;-76
2022/04/05 00:46:07;;;;;;;10.15;3.17;;;;;;;;;;5067743;27;95388;-79
2022/04/05 00:48:45;;;;;;;11.40;3.55;;;;;;;;;;5070178;27;97391;-78
2022/04/05 00:51:12;;;;;;;8.25;2.80;;;;;;;;;;5064945;27;97227;-77
2022/04/05 00:53:39;;;;;;;8.18;3.10;;;;;;;;;;5072345;27;95545;-78
2022/04/05 00:56:06;;;;;;;9.23;2.80;;;;;;;;;;5066634;27;97956;-77
2022/04/05 00:58:34;;;;;;;13.57;3.10;;;;;;;;;;5070519;27;96164;-79
2022/04/05 01:01:01;;;;;;;10.55;3.05;;;;;;;;;;5070360;27;96672;-78
2022/04/05 01:03:27;;;;;;;6.93;2.75;;;;;;;;;;5069321;27;97276;-78
2022/04/05 01:05:55;;;;;;;8.30;2.90;;;;;;;;;;5070056;27;95416;-79
2022/04/05 01:08:23;;;;;;;12.35;2.83;;;;;;;;;;5065808;27;97869;-79
2022/04/05 01:10:50;;;;;;;7.72;2.90;;;;;;;;;;5064905;27;97378;-79
2022/04/05 01:13:18;;;;;;;12.23;3.03;;;;;;;;;;5058339;27;95608;-80
2022/04/05 01:15:45;;;;;;;8.00;3.20;;;;;;;;;;5065647;27;96624;-79
2022/04/05 01:18:12;;;;;;;10.43;3.67;;;;;;;;;;5068715;27;95624;-79
2022/04/05 01:20:38;;;;;;;11.68;3.70;;;;;;;;;;5070236;27;96711;-79
2022/04/05 01:23:04;;;;;;;8.95;3.70;;;;;;;;;;5062449;27;97547;-79
2022/04/05 01:25:31;;;;;;;12.55;4.35;;;;;;;;;;5069976;27;95504;-78
2022/04/05 01:27:57;;;;;;;9.75;3.88;;;;;;;;;;5069467;27;97124;-78
2022/04/05 01:30:23;;;;;;;11.13;3.78;;;;;;;;;;5053007;27;97429;-79
2022/04/05 01:32:50;;;;;;;13.85;4.25;;;;;;;;;;5063042;27;95151;-79
2022/04/05 01:35:17;;;;;;;14.45;4.53;;;;;;;;;;5060107;27;96736;-78
2022/04/05 01:37:43;;;;;;;10.27;4.97;;;;;;;;;;5063935;27;97741;-78
2022/04/05 01:40:10;;;;;;;13.77;5.32;;;;;;;;;;5066658;27;96891;-79
2022/04/05 01:42:37;;;;;;;10.52;4.38;;;;;;;;;;5066271;27;96962;-78
2022/04/05 01:45:04;;;;;;;16.88;4.20;;;;;;;;;;5068746;27;95684;-79
2022/04/05 01:47:31;;;;;;;9.68;3.97;;;;;;;;;;5065387;27;96039;-79
2022/04/05 01:49:58;;;;;;;12.27;4.35;;;;;;;;;;5062563;27;97415;-79
2022/04/05 01:52:25;;;;;;;14.23;3.65;;;;;;;;;;5064146;27;95275;-80
2022/04/05 01:54:51;;;;;;;12.88;3.60;;;;;;;;;;5069774;27;96816;-79
2022/04/05 01:57:17;;;;;;;13.00;3.60;;;;;;;;;;5062047;27;97437;-79
2022/04/05 01:59:44;;;;;;;11.10;3.53;;;;;;;;;;5071723;27;95436;-79
2022/04/05 02:02:11;;;;;;;11.48;3.90;;;;;;;;;;5052006;27;97403;-79
2022/04/05 02:04:38;;;;;;;8.70;3.03;;;;;;;;;;5064279;27;95260;-81
2022/04/05 02:07:14;;;;;;;9.02;3.58;;;;;;;;;;5058045;27;96076;-79
2022/04/05 02:09:42;;;;;;;9.23;3.05;;;;;;;;;;5068824;27;97333;-79
2022/04/05 02:12:09;;;;;;;6.72;2.85;;;;;;;;;;5069050;27;95424;-79
2022/04/05 02:14:37;;;;;;;8.90;2.90;;;;;;;;;;5063999;27;96917;-79
2022/04/05 02:17:04;;;;;;;7.18;3.03;;;;;;;;;;5058274;27;97413;-79
2022/04/05 02:19:30;;;;;;;9.55;3.05;;;;;;;;;;5068344;27;95412;-79
2022/04/05 02:21:57;;;;;;;10.02;3.20;;;;;;;;;;5055741;27;96983;-79
2022/04/05 02:24:23;;;;;;;9.98;3.22;;;;;;;;;;5053704;27;95712;-80
2022/04/05 02:26:50;;;;;;;9.10;3.10;;;;;;;;;;5065237;27;96735;-80
2022/04/05 02:29:16;;;;;;;7.13;3.10;;;;;;;;;;5062698;27;96970;-78
2022/04/05 02:31:42;;;;;;;11.43;3.13;;;;;;;;;;5071150;27;95431;-79
2022/04/05 02:34:09;;;;;;;9.70;3.10;;;;;;;;;;5068770;27;96782;-79
2022/04/05 02:36:35;;;;;;;10.85;3.50;;;;;;;;;;5072101;27;97745;-79
2022/04/05 02:39:02;;;;;;;11.60;3.53;;;;;;;;;;5069858;27;95473;-79
2022/04/05 02:41:28;;;;;;;18.95;4.10;;;;;;;;;;5075448;27;96555;-81
2022/04/05 02:43:55;;;;;;;16.50;3.95;;;;;;;;;;5072374;27;95975;-80
2022/04/05 02:46:21;;;;;;;9.30;3.72;;;;;;;;;;5055320;27;97080;-79
2022/04/05 02:48:53;;;;;;;11.70;4.72;;;;;;;;;;5066561;27;97971;-80
2022/04/05 02:51:19;;;;;;;13.25;4.45;;;;;;;;;;5071687;27;95672;-81
2022/04/05 02:53:46;;;;;;;14.15;4.15;;;;;;;;;;5063527;27;96822;-81
2022/04/05 02:56:13;;;;;;;15.95;4.28;;;;;;;;;;5065669;27;97493;-81
2022/04/05 02:58:40;;;;;;;10.95;4.47;;;;;;;;;;5061819;27;95533;-80
2022/04/05 03:01:06;;;;;;;13.63;5.22;;;;;;;;;;5065916;27;96908;-81
2022/04/05 03:03:33;;;;;;;19.38;5.32;;;;;;;;;;5071344;27;97379;-80
2022/04/05 03:06:00;;;;;;;17.98;5.15;;;;;;;;;;5066146;27;96059;-80
2022/04/05 03:08:26;;;;;;;20.90;5.60;;;;;;;;;;5071918;27;97342;-81
2022/04/05 03:10:53;;;;;;;13.70;5.38;;;;;;;;;;5071842;27;95406;-80
2022/04/05 03:13:19;;;;;;;17.55;6.15;;;;;;;;;;5068011;27;96845;-77
2022/04/05 03:15:46;;;;;;;22.35;6.53;;;;;;;;;;5064456;27;97304;-77
2022/04/05 03:18:12;;;;;;;19.05;6.47;;;;;;;;;;5055745;27;95270;-78
2022/04/05 03:20:39;;;;;;;19.75;6.80;;;;;;;;;;5062626;27;96996;-78
2022/04/05 03:23:07;;;;;;;27.73;7.13;;;;;;;;;;5069560;27;97354;-79
2022/04/05 03:25:33;;;;;;;25.20;7.68;;;;;;;;;;5073902;27;96440;-77
2022/04/05 03:28:01;;;;;;;23.48;8.15;;;;;;;;;;5056020;27;96271;-78
2022/04/05 03:30:27;;;;;;;28.02;7.95;;;;;;;;;;5066132;27;95463;-79
2022/04/05 03:32:53;;;;;;;25.40;8.18;;;;;;;;;;5067260;27;96858;-79
2022/04/05 03:35:21;;;;;;;35.35;9.57;;;;;;;;;;5070207;27;97266;-78
2022/04/05 03:37:48;;;;;;;27.70;9.20;;;;;;;;;;5071602;27;96594;-76
2022/04/05 03:40:14;;;;;;;45.95;9.98;;;;;;;;;;5070042;27;96891;-80
2022/04/05 03:42:40;;;;;;;38.67;10.15;;;;;;;;;;5071559;27;97420;-77
2022/04/05 03:45:07;;;;;;;47.03;11.00;;;;;;;;;;5069697;27;97026;-78
2022/04/05 03:47:33;;;;;;;46.10;10.43;;;;;;;;;;5074735;27;96810;-79
2022/04/05 03:50:00;;;;;;;49.03;12.15;;;;;;;;;;5071403;27;95392;-79
2022/04/05 03:52:26;;;;;;;47.63;12.15;;;;;;;;;;5071345;27;97178;-79
2022/04/05 03:54:53;;;;;;;58.72;12.80;;;;;;;;;;5070814;27;97535;-80
2022/04/05 03:57:19;;;;;;;45.22;11.75;;;;;;;;;;5071586;27;95610;-80
2022/04/05 03:59:45;;;;;;;57.63;12.95;;;;;;;;;;5058607;27;96692;-79
2022/04/05 04:02:12;;;;;;;60.90;12.93;;;;;;;;;;5050156;27;97350;-78
2022/04/05 04:04:38;;;;;;;46.40;11.75;;;;;;;;;;5064963;27;95642;-79
2022/04/05 04:07:05;;;;;;;57.17;13.85;;;;;;;;;;5070992;27;96810;-79
2022/04/05 04:09:31;;;;;;;49.25;12.30;;;;;;;;;;5074316;27;97306;-78
2022/04/05 04:11:58;;;;;;;61.63;14.02;;;;;;;;;;5070780;27;95679;-80
2022/04/05 04:14:24;;;;;;;70.90;14.32;;;;;;;;;;5070715;27;97396;-80
2022/04/05 04:16:51;;;;;;;72.28;15.98;;;;;;;;;;5070841;27;95360;-80
2022/04/05 04:19:17;;;;;;;57.72;14.32;;;;;;;;;;5070407;27;96833;-80
2022/04/05 04:21:44;;;;;;;90.63;15.40;;;;;;;;;;5071023;27;97376;-82
2022/04/05 04:24:10;;;;;;;99.47;15.85;;;;;;;;;;5070714;27;95342;-82
2022/04/05 04:26:36;;;;;;;68.63;15.05;;;;;;;;;;5070693;27;96958;-79
2022/04/05 04:29:04;;;;;;;94.57;15.82;;;;;;;;;;5070608;27;97256;-79
2022/04/05 04:31:31;;;;;;;97.50;16.42;;;;;;;;;;5074592;27;95662;-80
2022/04/05 04:33:59;;;;;;;104.63;16.48;;;;;;;;;;5070036;27;97301;-81
2022/04/05 04:36:26;;;;;;;90.40;16.50;;;;;;;;;;5070666;27;95434;-81
2022/04/05 04:38:53;;;;;;;92.35;19.52;;;;;;;;;;5070546;27;96528;-81
2022/04/05 04:41:22;;;;;;;74.22;15.75;;;;;;;;;;5069626;27;97316;-78
2022/04/05 18:37:13;;;;;;;18.40;8.88;;;;;;;;;;5024079;28;95399;-77
2022/04/05 18:39:39;;;;;;;22.02;9.60;;;;;;;;;;5023904;28;97370;-76
2022/04/05 18:42:06;;;;;;;21.70;9.23;;;;;;;;;;5024064;27;95402;-75
2022/04/05 18:44:32;;;;;;;23.52;9.98;;;;;;;;;;5022815;28;96735;-73
2022/04/05 18:46:59;;;;;;;19.77;9.13;;;;;;;;;;5023145;28;97340;-74
2022/04/05 18:49:28;;;;;;;22.92;9.25;;;;;;;;;;5011286;28;95429;-74
2022/04/05 18:51:54;;;;;;;24.23;9.25;;;;;;;;;;5021166;28;97092;-75
2022/04/05 18:54:21;;;;;;;24.85;8.98;;;;;;;;;;5023657;28;97747;-77
2022/04/05 18:56:47;;;;;;;22.80;9.77;;;;;;;;;;5027739;28;96036;-75
2022/04/05 18:59:14;;;;;;;25.60;9.35;;;;;;;;;;5022004;28;96312;-74
2022/04/05 19:01:40;;;;;;;24.08;9.18;;;;;;;;;;5024061;28;95508;-75
2022/04/05 19:04:08;;;;;;;26.25;9.88;;;;;;;;;;5023597;27;97265;-77
2022/04/05 19:06:34;;;;;;;27.42;9.80;;;;;;;;;;5023740;28;97747;-78
2022/04/05 19:09:03;;;;;;;25.27;9.88;;;;;;;;;;5020256;28;95964;-78
2022/04/05 19:11:30;;;;;;;28.42;9.75;;;;;;;;;;5021965;28;96683;-73
2022/04/05 19:13:56;;;;;;;25.02;10.07;;;;;;;;;;5022469;28;97412;-75
2022/04/05 19:16:23;;;;;;;24.92;10.43;;;;;;;;;;5021349;28;96430;-75
2022/04/05 19:18:49;;;;;;;22.00;9.70;;;;;;;;;;5025498;28;96546;-75
2022/04/05 19:21:16;;;;;;;26.42;9.63;;;;;;;;;;5022350;28;95632;-76
2022/04/05 19:23:43;;;;;;;26.20;10.18;;;;;;;;;;5023583;28;96831;-75
2022/04/05 19:26:09;;;;;;;23.58;8.52;;;;;;;;;;5015915;28;97351;-75
2022/04/05 19:28:36;;;;;;;26.75;9.25;;;;;;;;;;5023469;27;95797;-75
2022/04/05 19:31:07;;;;;;;29.25;9.23;;;;;;;;;;5021627;28;96961;-76
2022/04/05 19:33:34;;;;;;;34.47;10.10;;;;;;;;;;5023616;27;97357;-74
2022/04/05 19:36:05;;;;;;;22.73;9.60;;;;;;;;;;5011611;28;97923;-75
2022/04/05 19:38:32;;;;;;;27.00;9.63;;;;;;;;;;5003902;28;97342;-74
2022/04/05 19:40:59;;;;;;;26.23;9.40;;;;;;;;;;5004798;28;97370;-75
2022/04/05 19:43:25;;;;;;;23.08;9.23;;;;;;;;;;5003440;28;97086;-76
2022/04/05 19:45:52;;;;;;;27.70;9.52;;;;;;;;;;5003557;28;97151;-74
2022/04/05 19:48:20;;;;;;;27.20;9.98;;;;;;;;;;4988395;28;95767;-76
2022/04/05 19:50:47;;;;;;;25.17;9.13;;;;;;;;;;4989333;28;95773;-75
2022/04/05 19:53:13;;;;;;;24.73;9.38;;;;;;;;;;4989493;28;97741;-76
2022/04/05 19:55:40;;;;;;;26.83;10.77;;;;;;;;;;4990206;28;95572;-77
2022/04/05 19:58:06;;;;;;;23.48;10.18;;;;;;;;;;4988642;28;96873;-75
2022/04/05 20:00:34;;;;;;;21.92;9.40;;;;;;;;;;4989541;28;97402;-77
2022/04/05 20:03:01;;;;;;;26.08;9.48;;;;;;;;;;4993510;28;95428;-76
2022/04/05 20:05:28;;;;;;;27.00;9.43;;;;;;;;;;4989899;28;97471;-75
2022/04/05 20:07:54;;;;;;;25.83;9.57;;;;;;;;;;4989535;28;96213;-77
2022/04/05 20:10:21;;;;;;;25.20;9.63;;;;;;;;;;4989419;28;96739;-76
2022/04/05 20:12:47;;;;;;;23.55;9.60;;;;;;;;;;4990865;28;96762;-76
2022/04/05 20:15:14;;;;;;;33.17;11.27;;;;;;;;;;4989561;28;95431;-76
2022/04/05 20:20:29;;;;;;;26.83;10.57;;;;;;;;;;4989426;28;98725;-76
2022/04/05 20:22:57;;;;;;;28.52;9.90;;;;;;;;;;4989631;28;95276;-76
2022/04/05 20:25:24;;;;;;;25.58;9.88;;;;;;;;;;4993978;28;96971;-77
2022/04/05 20:27:51;;;;;;;28.00;10.13;;;;;;;;;;4991205;28;95297;-76
2022/04/05 20:30:18;;;;;;;28.35;10.43;;;;;;;;;;4989113;28;96677;-76
2022/04/05 20:32:45;;;;;;;27.48;9.90;;;;;;;;;;4989320;28;97649;-77
2022/04/05 20:35:11;;;;;;;25.77;9.93;;;;;;;;;;4994125;28;95416;-76
2022/04/05 20:37:38;;;;;;;28.63;10.48;;;;;;;;;;5010980;28;97212;-79
2022/04/05 20:40:05;;;;;;;35.53;11.05;;;;;;;;;;5009912;28;97689;-76
2022/04/05 20:42:31;;;;;;;24.23;10.40;;;;;;;;;;5009077;28;95937;-77
2022/04/05 20:44:58;;;;;;;27.33;10.13;;;;;;;;;;5008719;28;97277;-77
2022/04/05 20:47:25;;;;;;;23.77;10.15;;;;;;;;;;5013967;28;95710;-77
2022/04/05 20:49:52;;;;;;;24.38;10.93;;;;;;;;;;5009333;28;95744;-75
2022/04/05 20:52:19;;;;;;;28.55;10.40;;;;;;;;;;5007701;28;97770;-75
2022/04/05 20:54:49;;;;;;;29.02;10.68;;;;;;;;;;4991956;28;95211;-74
2022/04/05 20:57:19;;;;;;;27.63;9.82;;;;;;;;;;4997975;28;96873;-75
2022/04/05 20:59:50;;;;;;;31.45;10.07;;;;;;;;;;5002617;28;97334;-74
2022/04/05 21:02:16;;;;;;;29.90;10.68;;;;;;;;;;5010242;28;95610;-73
2022/04/05 21:04:43;;;;;;;30.77;10.55;;;;;;;;;;5010115;28;99385;-76
2022/04/05 21:07:11;;;;;;;28.20;10.60;;;;;;;;;;5011772;28;96407;-75
2022/04/05 21:09:37;;;;;;;28.10;10.13;;;;;;;;;;5009920;28;97170;-75
2022/04/05 21:12:04;;;;;;;30.77;9.98;;;;;;;;;;5009296;28;97343;-77
2022/04/05 21:14:30;;;;;;;23.15;9.50;;;;;;;;;;5008994;28;95762;-76
2022/04/05 21:16:57;;;;;;;30.35;10.05;;;;;;;;;;5010519;28;96774;-77
2022/04/05 21:19:23;;;;;;;27.42;10.30;;;;;;;;;;5009434;28;97746;-75
2022/04/05 21:21:50;;;;;;;36.85;11.40;;;;;;;;;;5009874;28;95432;-76
2022/04/05 21:24:17;;;;;;;33.35;10.25;;;;;;;;;;4995584;28;97036;-78
2022/04/05 21:26:45;;;;;;;22.30;10.52;;;;;;;;;;4989225;28;97465;-77
2022/04/05 21:31:57;;;;;;;29.88;10.23;;;;;;;;;;5009540;28;96469;-78
2022/04/05 21:34:23;;;;;;;30.02;11.80;;;;;;;;;;5009003;28;95448;-77
2022/04/05 21:36:53;;;;;;;33.90;10.45;;;;;;;;;;4998216;28;96903;-78
2022/04/05 21:39:20;;;;;;;31.10;10.05;;;;;;;;;;5007769;28;97422;-77
2022/04/05 21:41:46;;;;;;;38.88;10.98;;;;;;;;;;5009250;28;95239;-76
2022/04/05 21:44:13;;;;;;;39.35;10.38;;;;;;;;;;5009183;28;97051;-78
2022/04/05 21:46:39;;;;;;;31.25;10.98;;;;;;;;;;5008836;28;97366;-78
2022/04/05 21:49:05;;;;;;;32.70;10.10;;;;;;;;;;5009067;28;95205;-77
2022/04/05 21:51:32;;;;;;;27.45;10.13;;;;;;;;;;5012181;28;96782;-78
2022/04/05 21:53:58;;;;;;;33.22;11.18;;;;;;;;;;5008666;28;95278;-74
2022/04/05 21:56:24;;;;;;;32.25;10.65;;;;;;;;;;5007455;28;96777;-76
2022/04/05 21:58:52;;;;;;;37.05;10.23;;;;;;;;;;5009324;28;97652;-75
2022/04/05 22:01:19;;;;;;;37.72;10.73;;;;;;;;;;5008556;28;95684;-74
2022/04/05 22:03:45;;;;;;;32.22;10.07;;;;;;;;;;5008996;28;97044;-76
2022/04/05 22:06:12;;;;;;;36.40;10.95;;;;;;;;;;5008295;28;96326;-75
2022/04/05 22:08:38;;;;;;;38.22;10.70;;;;;;;;;;5009304;28;95732;-75
2022/04/05 22:11:04;;;;;;;33.45;11.02;;;;;;;;;;5008812;28;96419;-75
2022/04/05 22:13:30;;;;;;;28.70;10.73;;;;;;;;;;5011341;28;97278;-75
2022/04/05 22:15:57;;;;;;;37.55;11.82;;;;;;;;;;5000897;27;96706;-75
2022/04/05 22:18:23;;;;;;;43.50;12.70;;;;;;;;;;4988889;28;97461;-78
2022/04/05 22:20:51;;;;;;;39.13;11.05;;;;;;;;;;4989219;28;95396;-77
2022/04/05 22:23:18;;;;;;;31.65;10.75;;;;;;;;;;5004313;28;97190;-78
2022/04/05 22:25:45;;;;;;;37.03;12.00;;;;;;;;;;5003768;28;97358;-77
2022/04/05 22:28:11;;;;;;;32.80;11.50;;;;;;;;;;4989074;28;95277;-77
2022/04/05 22:30:38;;;;;;;37.38;12.20;;;;;;;;;;4989000;28;96047;-77
2022/04/05 22:33:04;;;;;;;39.10;12.20;;;;;;;;;;4999581;28;97525;-77
2022/04/05 22:35:30;;;;;;;31.58;12.65;;;;;;;;;;5011475;28;95406;-78
2022/04/05 22:37:57;;;;;;;39.22;12.35;;;;;;;;;;5006315;28;97500;-77
2022/04/05 22:40:23;;;;;;;31.88;11.35;;;;;;;;;;5008663;28;95616;-77
2022/04/05 22:42:50;;;;;;;42.08;12.18;;;;;;;;;;5008285;28;96802;-78
2022/04/05 22:45:16;;;;;;;46.67;13.20;;;;;;;;;;5003365;28;97353;-78
2022/04/05 22:47:42;;;;;;;44.58;13.30;;;;;;;;;;5022622;28;95340;-78
2022/04/05 22:50:09;;;;;;;39.78;12.43;;;;;;;;;;5027414;28;96761;-79
2022/04/05 22:52:36;;;;;;;35.28;11.77;;;;;;;;;;5008337;28;97429;-77
2022/04/05 22:55:04;;;;;;;41.08;13.75;;;;;;;;;;5011417;28;95378;-78
2022/04/05 22:57:31;;;;;;;34.88;11.68;;;;;;;;;;5008209;28;97463;-79
2022/04/05 22:59:57;;;;;;;32.40;11.65;;;;;;;;;;5008692;28;95379;-77
2022/04/05 23:02:24;;;;;;;43.08;12.32;;;;;;;;;;5008380;28;97034;-77
2022/04/05 23:04:50;;;;;;;32.78;11.32;;;;;;;;;;5006229;28;97668;-78
2022/04/05 23:07:17;;;;;;;38.05;12.15;;;;;;;;;;5008162;28;95298;-77
2022/04/05 23:09:43;;;;;;;40.22;11.57;;;;;;;;;;5008924;28;96783;-78
2022/04/05 23:12:09;;;;;;;38.83;11.77;;;;;;;;;;5007332;28;97346;-77
2022/04/05 23:14:36;;;;;;;41.38;11.80;;;;;;;;;;5007945;28;95419;-77
2022/04/05 23:17:02;;;;;;;36.72;11.75;;;;;;;;;;5009024;28;97052;-79
2022/04/05 23:19:29;;;;;;;38.20;11.80;;;;;;;;;;5008097;28;95744;-78
2022/04/05 23:21:55;;;;;;;28.48;11.07;;;;;;;;;;5008573;28;96558;-78
2022/04/05 23:24:21;;;;;;;40.53;11.65;;;;;;;;;;5010848;28;96602;-76
2022/04/05 23:26:48;;;;;;;36.10;11.13;;;;;;;;;;5011329;28;96560;-78
2022/04/05 23:29:14;;;;;;;42.95;11.50;;;;;;;;;;5013699;28;96734;-77
2022/04/05 23:32:01;;;;;;;31.30;9.77;;;;;;;;;;5031726;28;97388;-76
2022/04/05 23:34:47;;;;;;;38.20;10.07;;;;;;;;;;5027486;27;96285;-76
2022/04/05 23:37:14;;;;;;;32.20;9.07;;;;;;;;;;5011275;28;96459;-75
2022/04/05 23:39:41;;;;;;;34.17;8.98;;;;;;;;;;5014019;28;96342;-75
2022/04/05 23:42:09;;;;;;;41.25;9.88;;;;;;;;;;5011061;28;96914;-77
2022/04/05 23:44:35;;;;;;;33.83;9.02;;;;;;;;;;4999410;28;97749;-75
2022/04/05 23:47:02;;;;;;;29.30;8.85;;;;;;;;;;5010899;28;95169;-76
2022/04/05 23:49:28;;;;;;;31.30;9.82;;;;;;;;;;5011869;28;96934;-76
2022/04/05 23:51:54;;;;;;;29.02;9.30;;;;;;;;;;5011291;28;97226;-74
2022/04/05 23:54:22;;;;;;;37.40;9.30;;;;;;;;;;5010632;28;95393;-75
2022/04/05 23:56:49;;;;;;;33.25;10.13;;;;;;;;;;5011283;28;96945;-75
2022/04/05 23:59:16;;;;;;;32.25;9.40;;;;;;;;;;5010280;28;97501;-76
